createdAt,value
2022-09-07T00:00:45.079Z,2.92
2022-09-07T00:03:34.345Z,2.55
2022-09-07T00:06:21.425Z,2.17
2022-09-07T00:09:08.303Z,3.10
2022-09-07T00:11:55.192Z,2.47
2022-09-07T00:14:42.093Z,2.53
2022-09-07T00:17:31.345Z,2.60
2022-09-07T00:20:18.615Z,3.38
2022-09-07T00:23:05.644Z,2.53
2022-09-07T00:25:54.219Z,2.88
2022-09-07T00:28:42.750Z,2.58
2022-09-07T00:31:31.055Z,2.78
2022-09-07T00:34:17.987Z,2.88
2022-09-07T00:37:07.872Z,2.70
2022-09-07T00:39:54.832Z,2.70
2022-09-07T00:42:41.734Z,2.00
2022-09-07T00:45:29.216Z,2.20
2022-09-07T00:48:18.799Z,2.35
2022-09-07T00:51:09.790Z,2.08
2022-09-07T00:54:28.396Z,2.45
2022-09-07T00:57:15.644Z,1.98
2022-09-07T01:00:04.723Z,2.30
2022-09-07T01:02:55.597Z,2.78
2022-09-07T01:05:50.636Z,2.38
2022-09-07T01:08:42.093Z,2.20
2022-09-07T01:11:31.566Z,2.10
2022-09-07T01:14:31.885Z,2.97
2022-09-07T01:17:38.639Z,2.60
2022-09-07T01:20:36.452Z,2.25
2022-09-07T01:23:55.494Z,2.60
2022-09-07T01:27:19.495Z,2.20
2022-09-07T01:30:16.376Z,2.22
2022-09-07T01:33:16.988Z,2.28
2022-09-07T01:36:18.338Z,3.08
2022-09-07T01:39:06.211Z,2.42
2022-09-07T01:42:00.946Z,2.80
2022-09-07T01:45:00.805Z,2.17
2022-09-07T01:47:53.730Z,2.47
2022-09-07T01:50:47.557Z,2.30
2022-09-07T01:53:39.964Z,2.42
2022-09-07T01:56:33.036Z,2.20
2022-09-07T01:59:42.882Z,2.50
2022-09-07T02:02:34.316Z,2.60
2022-09-07T02:05:48.215Z,3.08
2022-09-07T02:08:47.647Z,2.42
2022-09-07T02:11:44.483Z,3.00
2022-09-07T02:14:36.708Z,2.55
2022-09-07T02:17:34.209Z,2.50
2022-09-07T02:20:32.079Z,2.35
2022-09-07T02:23:25.210Z,2.45
2022-09-07T02:29:08.286Z,3.13
2022-09-07T02:31:57.548Z,2.95
2022-09-07T02:34:24.497Z,2.22
2022-09-07T02:36:53.034Z,3.00
2022-09-07T02:39:20.003Z,2.40
2022-09-07T02:41:47.034Z,1.92
2022-09-07T02:44:17.414Z,2.67
2022-09-07T02:47:19.513Z,2.35
2022-09-07T02:49:58.111Z,2.25
2022-09-07T02:52:27.566Z,2.00
2022-09-07T02:55:23.408Z,2.72
2022-09-07T02:58:13.011Z,2.95
2022-09-07T03:00:50.294Z,2.58
2022-09-07T03:03:45.138Z,2.63
2022-09-07T03:06:24.047Z,2.53
2022-09-07T03:08:55.343Z,3.42
2022-09-07T03:11:27.722Z,2.53
2022-09-07T03:14:11.664Z,2.55
2022-09-07T03:16:38.232Z,3.08
2022-09-07T03:19:05.128Z,3.33
2022-09-07T03:21:32.089Z,3.00
2022-09-07T03:24:03.292Z,3.13
2022-09-07T03:26:29.918Z,2.25
2022-09-07T03:28:59.708Z,2.60
2022-09-07T03:31:31.291Z,2.95
2022-09-07T03:34:02.656Z,2.60
2022-09-07T03:36:34.885Z,3.13
2022-09-07T03:39:01.567Z,2.75
2022-09-07T03:41:28.683Z,2.63
2022-09-07T03:44:02.079Z,3.60
2022-09-07T03:46:28.692Z,2.83
2022-09-07T03:48:55.271Z,3.15
2022-09-07T03:51:21.832Z,3.38
2022-09-07T03:53:51.171Z,3.40
2022-09-07T03:56:23.124Z,2.95
2022-09-07T03:58:50.831Z,3.03
2022-09-07T04:01:24.488Z,2.90
2022-09-07T04:03:52.278Z,3.05
2022-09-07T04:06:19.639Z,3.33
2022-09-07T04:08:46.591Z,3.47
2022-09-07T04:11:16.065Z,3.17
2022-09-07T04:13:45.387Z,3.28
2022-09-07T04:16:21.475Z,3.00
2022-09-07T04:18:50.375Z,2.90
2022-09-07T04:21:21.518Z,4.57
2022-09-07T04:23:51.052Z,2.75
2022-09-07T04:26:27.884Z,2.55
2022-09-07T04:28:57.905Z,2.83
2022-09-07T04:31:27.463Z,2.97
2022-09-07T04:33:56.634Z,3.03
2022-09-07T04:36:25.551Z,2.88
2022-09-07T04:38:57.087Z,2.75
2022-09-07T04:41:23.759Z,3.72
2022-09-07T04:43:55.057Z,3.28
2022-09-07T04:46:27.349Z,2.50
2022-09-07T04:48:59.393Z,4.18
2022-09-07T04:51:28.789Z,3.00
2022-09-07T04:54:02.050Z,3.58
2022-09-07T04:56:29.456Z,2.80
2022-09-07T04:59:01.313Z,2.90
2022-09-07T05:01:28.370Z,3.13
2022-09-07T05:03:55.179Z,2.38
2022-09-07T05:06:27.069Z,3.08
2022-09-07T05:08:54.585Z,3.00
2022-09-07T05:11:28.446Z,3.15
2022-09-07T05:13:59.578Z,3.20
2022-09-07T05:16:29.781Z,3.00
2022-09-07T05:19:01.762Z,3.28
2022-09-07T05:21:33.819Z,3.97
2022-09-07T05:24:01.831Z,3.03
2022-09-07T05:26:36.264Z,2.90
2022-09-07T05:31:54.899Z,3.47
2022-09-07T05:36:57.668Z,2.90
2022-09-07T05:39:24.452Z,3.13
2022-09-07T05:41:53.947Z,3.20
2022-09-07T05:47:10.391Z,3.05
2022-09-07T05:49:41.842Z,2.95
2022-09-07T05:52:11.335Z,3.35
2022-09-07T05:54:37.892Z,2.95
2022-09-07T05:57:11.304Z,3.50
2022-09-07T05:59:40.123Z,3.17
2022-09-07T06:02:09.581Z,4.03
2022-09-07T06:04:36.202Z,3.20
2022-09-07T06:07:21.254Z,3.88
2022-09-07T06:12:37.457Z,3.65
2022-09-07T06:15:06.892Z,3.60
2022-09-07T06:17:38.359Z,3.55
2022-09-07T06:20:06.728Z,2.90
2022-09-07T06:22:40.121Z,3.80
2022-09-07T06:25:06.941Z,2.92
2022-09-07T06:27:33.832Z,3.13
2022-09-07T06:30:02.739Z,2.90
2022-09-07T06:32:47.093Z,3.17
2022-09-07T06:35:14.721Z,2.80
2022-09-07T06:37:41.390Z,3.85
2022-09-07T06:40:10.862Z,2.90
2022-09-07T06:42:44.869Z,2.63
2022-09-07T06:45:15.042Z,4.00
2022-09-07T06:47:44.031Z,3.38
2022-09-07T06:50:10.653Z,2.88
2022-09-07T06:55:26.163Z,3.30
2022-09-07T06:57:54.852Z,2.20
2022-09-07T07:00:23.921Z,3.15
2022-09-07T07:02:50.658Z,2.72
2022-09-07T07:05:19.726Z,2.30
2022-09-07T07:07:46.297Z,2.88
2022-09-07T07:10:13.015Z,2.95
2022-09-07T07:15:08.786Z,2.45
2022-09-07T07:17:37.694Z,1.83
2022-09-07T07:20:07.433Z,2.28
2022-09-07T07:22:49.176Z,2.42
2022-09-07T07:25:19.054Z,1.88
2022-09-07T07:27:48.327Z,2.78
2022-09-07T07:30:16.293Z,2.80
2022-09-07T07:32:43.598Z,2.33
2022-09-07T07:35:11.181Z,2.60
2022-09-07T07:37:37.797Z,2.58
2022-09-07T07:42:39.820Z,1.58
2022-09-07T07:47:56.998Z,2.35
2022-09-07T07:50:31.713Z,2.47
2022-09-07T07:55:54.224Z,1.60
2022-09-07T07:58:22.956Z,1.30
2022-09-07T08:00:57.332Z,1.25
2022-09-07T08:03:27.319Z,1.50
2022-09-07T08:05:57.195Z,4.00
2022-09-07T08:08:24.226Z,0.80
2022-09-07T08:10:50.856Z,1.38
2022-09-07T08:13:21.363Z,1.98
2022-09-07T08:15:50.633Z,1.67
2022-09-07T08:18:17.792Z,1.20
2022-09-07T08:20:46.383Z,1.90
2022-09-07T08:23:14.624Z,1.55
2022-09-07T08:25:54.580Z,1.25
2022-09-07T08:28:27.996Z,2.28
2022-09-07T08:30:55.589Z,1.90
2022-09-07T08:33:29.049Z,1.25
2022-09-07T08:36:01.932Z,1.40
2022-09-07T08:38:32.424Z,1.85
2022-09-07T08:41:00.043Z,1.83
2022-09-07T08:43:30.188Z,1.65
2022-09-07T08:46:04.106Z,1.75
2022-09-07T08:48:36.801Z,0.95
2022-09-07T08:51:09.332Z,1.55
2022-09-07T08:53:45.644Z,1.35
2022-09-07T08:56:33.953Z,1.88
2022-09-07T08:59:15.055Z,1.20
2022-09-07T09:02:26.319Z,1.92
2022-09-07T09:05:16.204Z,0.80
2022-09-07T09:07:56.405Z,1.40
2022-09-07T09:10:36.769Z,0.82
2022-09-07T09:13:09.519Z,1.08
2022-09-07T09:15:46.668Z,1.70
2022-09-07T09:18:25.567Z,1.20
2022-09-07T09:20:53.648Z,0.90
2022-09-07T09:23:25.700Z,0.90
2022-09-07T09:25:59.343Z,0.82
2022-09-07T09:28:28.818Z,0.90
2022-09-07T09:30:58.419Z,1.20
2022-09-07T09:33:28.923Z,0.60
2022-09-07T09:38:33.279Z,1.30
2022-09-07T09:41:08.808Z,1.83
2022-09-07T09:43:46.340Z,0.80
2022-09-07T09:46:21.162Z,0.80
2022-09-07T09:48:53.774Z,1.67
2022-09-07T09:54:34.430Z,1.30
2022-09-07T09:57:03.828Z,0.70
2022-09-07T10:05:29.891Z,0.63
2022-09-07T10:07:59.026Z,0.70
2022-09-07T10:10:32.179Z,1.38
2022-09-07T10:12:58.686Z,1.50
2022-09-07T10:15:29.655Z,1.35
2022-09-07T10:20:35.134Z,0.93
2022-09-07T10:23:02.968Z,1.48
2022-09-07T10:25:39.584Z,1.00
2022-09-07T10:28:12.730Z,0.70
2022-09-07T10:30:53.675Z,0.50
2022-09-07T10:33:28.970Z,1.00
2022-09-07T10:36:14.892Z,1.25
2022-09-07T10:38:49.717Z,0.90
2022-09-07T10:41:24.008Z,0.80
2022-09-07T10:43:51.849Z,1.13
2022-09-07T10:49:34.777Z,0.90
2022-09-07T10:52:18.278Z,1.00
2022-09-07T10:54:58.154Z,0.90
2022-09-07T10:58:00.008Z,1.08
2022-09-07T11:03:27.903Z,0.70
2022-09-07T11:06:24.268Z,0.95
2022-09-07T11:09:19.742Z,0.68
2022-09-07T11:12:01.444Z,1.75
2022-09-07T11:14:31.375Z,0.50
2022-09-07T11:17:07.730Z,1.40
2022-09-07T11:19:43.276Z,0.95
2022-09-07T11:22:24.344Z,0.65
2022-09-07T11:27:55.948Z,0.75
2022-09-07T11:30:50.223Z,0.88
2022-09-07T11:33:22.795Z,0.90
2022-09-07T11:35:52.240Z,1.13
2022-09-07T11:38:28.036Z,1.38
2022-09-07T11:41:12.581Z,0.90
2022-09-07T11:43:47.064Z,0.63
2022-09-07T11:46:20.395Z,0.65
2022-09-07T11:48:55.441Z,0.63
2022-09-07T11:51:30.911Z,1.13
2022-09-07T11:54:23.691Z,1.05
2022-09-07T11:57:11.932Z,1.00
2022-09-07T11:59:50.441Z,1.00
2022-09-07T12:03:00.537Z,1.05
2022-09-07T12:05:41.434Z,0.90
2022-09-07T12:08:18.505Z,0.77
2022-09-07T12:10:57.440Z,1.63
2022-09-07T12:13:47.646Z,0.50
2022-09-07T12:16:29.434Z,1.45
2022-09-07T12:19:03.785Z,1.40
2022-09-07T12:22:01.360Z,1.50
2022-09-07T12:24:43.089Z,1.63
2022-09-07T12:27:21.937Z,0.95
2022-09-07T12:30:11.402Z,0.82
2022-09-07T12:32:55.314Z,0.73
2022-09-07T12:35:41.878Z,1.15
2022-09-07T12:38:17.523Z,1.33
2022-09-07T12:41:01.407Z,0.65
2022-09-07T12:43:27.931Z,1.50
2022-09-07T12:45:57.996Z,1.13
2022-09-07T12:49:04.665Z,1.00
2022-09-07T13:00:01.648Z,1.50
2022-09-07T13:02:30.945Z,1.35
2022-09-07T13:05:42.405Z,0.70
2022-09-07T13:08:23.419Z,1.10
2022-09-07T13:10:54.447Z,1.30
2022-09-07T13:16:29.793Z,0.98
2022-09-07T13:18:57.065Z,1.50
2022-09-07T13:21:48.673Z,0.70
2022-09-07T13:27:58.606Z,0.68
2022-09-07T13:30:31.264Z,0.80
2022-09-07T13:33:24.957Z,1.67
2022-09-07T13:35:56.762Z,0.90
2022-09-07T13:38:26.472Z,0.70
2022-09-07T13:41:04.257Z,0.40
2022-09-07T13:43:33.273Z,1.05
2022-09-07T13:46:08.080Z,0.77
2022-09-07T13:48:43.406Z,1.35
2022-09-07T13:51:31.040Z,0.68
2022-09-07T13:54:07.339Z,1.23
2022-09-07T13:56:52.111Z,1.20
2022-09-07T13:59:34.822Z,1.05
2022-09-07T14:02:06.013Z,1.38
2022-09-07T14:04:39.224Z,0.97
2022-09-07T14:07:16.967Z,1.10
2022-09-07T14:09:43.409Z,0.93
2022-09-07T14:12:21.979Z,0.95
2022-09-07T14:15:16.984Z,0.75
2022-09-07T14:17:44.855Z,1.10
2022-09-07T14:20:15.975Z,0.80
2022-09-07T14:22:43.350Z,0.85
2022-09-07T14:25:22.085Z,0.70
2022-09-07T14:27:49.363Z,1.20
2022-09-07T14:30:15.774Z,1.38
2022-09-07T14:32:48.464Z,0.52
2022-09-07T14:35:20.942Z,1.20
2022-09-07T14:37:51.762Z,0.55
2022-09-07T14:40:24.183Z,0.65
2022-09-07T14:42:53.320Z,0.80
2022-09-07T14:45:22.752Z,1.27
2022-09-07T14:47:56.469Z,0.93
2022-09-07T14:50:31.028Z,1.38
2022-09-07T14:56:03.335Z,0.55
2022-09-07T14:58:32.310Z,0.95
2022-09-07T15:04:18.020Z,1.00
2022-09-07T15:07:02.151Z,0.85
2022-09-07T15:09:37.637Z,0.60
2022-09-07T15:12:17.607Z,1.25
2022-09-07T15:14:44.782Z,1.27
2022-09-07T15:17:49.993Z,1.02
2022-09-07T15:20:40.094Z,0.73
2022-09-07T15:23:20.122Z,0.55
2022-09-07T15:25:52.210Z,1.17
2022-09-07T15:34:10.250Z,0.82
2022-09-07T15:36:46.775Z,1.23
2022-09-07T15:39:25.305Z,0.85
2022-09-07T15:42:59.006Z,1.80
2022-09-07T15:44:50.658Z,0.93
2022-09-07T15:50:08.238Z,1.20
2022-09-07T15:52:34.899Z,0.98
2022-09-07T15:55:04.023Z,0.77
2022-09-07T15:57:49.233Z,0.95
2022-09-07T16:00:18.552Z,0.60
2022-09-07T16:03:09.033Z,1.55
2022-09-07T16:05:39.906Z,0.80
2022-09-07T16:10:53.917Z,0.77
2022-09-07T16:13:25.302Z,0.85
2022-09-07T16:15:51.890Z,1.05
2022-09-07T16:18:18.841Z,0.80
2022-09-07T16:20:52.457Z,1.25
2022-09-07T16:23:21.739Z,2.15
2022-09-07T16:26:01.245Z,0.77
2022-09-07T16:28:28.871Z,1.20
2022-09-07T16:30:56.312Z,0.35
2022-09-07T16:33:29.153Z,0.68
2022-09-07T16:36:07.322Z,0.88
2022-09-07T16:41:26.358Z,0.70
2022-09-07T16:43:55.607Z,0.70
2022-09-07T16:46:25.497Z,0.75
2022-09-07T16:48:52.180Z,0.68
2022-09-07T16:51:21.201Z,1.17
2022-09-07T16:53:49.633Z,0.80
2022-09-07T16:56:24.142Z,0.93
2022-09-07T16:58:52.981Z,0.70
2022-09-07T17:01:21.862Z,0.40
2022-09-07T17:03:49.500Z,0.68
2022-09-07T17:06:20.728Z,0.73
2022-09-07T17:08:47.797Z,0.70
2022-09-07T17:11:18.854Z,0.93
2022-09-07T17:13:46.144Z,0.77
2022-09-07T17:16:15.147Z,1.20
2022-09-07T17:21:31.345Z,1.13
2022-09-07T17:23:59.830Z,0.85
2022-09-07T17:26:27.145Z,0.98
2022-09-07T17:28:56.662Z,1.35
2022-09-07T17:34:20.032Z,0.73
2022-09-07T17:36:51.570Z,0.87
2022-09-07T17:39:20.515Z,0.68
2022-09-07T17:41:55.010Z,0.95
2022-09-07T17:44:23.250Z,0.50
2022-09-07T17:46:50.080Z,0.52
2022-09-07T17:49:18.783Z,0.95
2022-09-07T17:51:45.622Z,1.10
2022-09-07T17:54:15.627Z,0.82
2022-09-07T17:56:42.765Z,1.05
2022-09-07T18:02:01.129Z,0.70
2022-09-07T18:04:28.542Z,0.90
2022-09-07T18:06:57.789Z,1.13
2022-09-07T18:09:31.387Z,1.10
2022-09-07T18:11:57.814Z,1.02
2022-09-07T18:14:24.371Z,1.40
2022-09-07T18:16:51.183Z,1.02
2022-09-07T18:19:18.853Z,1.80
2022-09-07T18:21:47.659Z,1.42
2022-09-07T18:24:19.421Z,1.48
2022-09-07T18:26:52.076Z,0.95
2022-09-07T18:29:29.847Z,0.85
2022-09-07T18:32:02.983Z,0.80
2022-09-07T18:34:31.713Z,1.02
2022-09-07T18:36:59.570Z,1.17
2022-09-07T18:39:27.011Z,1.50
2022-09-07T18:41:54.432Z,0.93
2022-09-07T18:47:08.608Z,1.17
2022-09-07T18:49:35.293Z,0.98
2022-09-07T18:54:48.712Z,1.85
2022-09-07T18:57:15.563Z,1.17
2022-09-07T18:59:42.060Z,1.60
2022-09-07T19:02:11.133Z,0.93
2022-09-07T19:07:29.898Z,1.15
2022-09-07T19:09:58.808Z,2.22
2022-09-07T19:12:25.276Z,1.10
2022-09-07T19:14:51.769Z,1.65
2022-09-07T19:17:21.082Z,1.70
2022-09-07T19:19:48.437Z,1.23
2022-09-07T19:22:14.861Z,1.25
2022-09-07T19:24:41.292Z,1.23
2022-09-07T19:27:07.717Z,1.50
2022-09-07T19:29:36.272Z,0.95
2022-09-07T19:32:06.751Z,2.13
2022-09-07T19:34:34.332Z,1.50
2022-09-07T19:37:01.453Z,1.85
2022-09-07T19:39:28.409Z,1.23
2022-09-07T19:41:59.912Z,1.77
2022-09-07T19:44:26.421Z,1.30
2022-09-07T19:46:55.568Z,1.15
2022-09-07T19:49:23.199Z,1.42
2022-09-07T19:51:52.155Z,1.17
2022-09-07T19:54:18.965Z,1.83
2022-09-07T19:56:45.590Z,0.95
2022-09-07T19:59:12.466Z,1.35
2022-09-07T20:01:40.509Z,2.13
2022-09-07T20:04:10.624Z,1.70
2022-09-07T20:06:39.273Z,1.00
2022-09-07T20:09:08.324Z,2.10
2022-09-07T20:11:35.780Z,2.20
2022-09-07T20:14:03.264Z,1.30
2022-09-07T20:16:31.008Z,1.13
2022-09-07T20:18:58.797Z,1.42
2022-09-07T20:21:30.178Z,1.75
2022-09-07T20:23:56.634Z,1.63
2022-09-07T20:26:25.500Z,1.25
2022-09-07T20:29:16.422Z,1.50
2022-09-07T20:31:46.695Z,1.42
2022-09-07T20:34:15.956Z,1.45
2022-09-07T20:36:42.407Z,1.40
2022-09-07T20:39:15.665Z,2.03
2022-09-07T20:41:42.369Z,1.98
2022-09-07T20:44:11.412Z,1.25
2022-09-07T20:46:38.438Z,1.55
2022-09-07T20:49:05.261Z,1.48
2022-09-07T20:51:34.159Z,1.92
2022-09-07T20:54:02.927Z,1.50
2022-09-07T20:56:29.549Z,0.93
2022-09-07T20:59:02.161Z,1.60
2022-09-07T21:01:30.803Z,2.00
2022-09-07T21:04:15.948Z,1.60
2022-09-07T21:07:05.313Z,1.52
2022-09-07T21:09:52.142Z,1.20
2022-09-07T21:12:38.979Z,1.27
2022-09-07T21:15:25.764Z,1.77
2022-09-07T21:18:16.949Z,0.95
2022-09-07T21:21:19.201Z,1.30
2022-09-07T21:24:15.800Z,1.88
2022-09-07T21:27:05.434Z,1.65
2022-09-07T21:29:52.212Z,1.85
2022-09-07T21:32:40.300Z,1.45
2022-09-07T21:35:27.067Z,1.40
2022-09-07T21:38:13.852Z,1.67
2022-09-07T21:41:09.106Z,1.55
2022-09-07T21:44:01.021Z,1.50
2022-09-07T21:46:47.827Z,1.20
2022-09-07T21:49:34.617Z,1.90
2022-09-07T21:52:21.397Z,1.20
2022-09-07T21:55:11.387Z,1.55
2022-09-07T21:57:58.222Z,2.60
2022-09-07T22:00:47.469Z,0.80
2022-09-07T22:03:34.400Z,1.38
2022-09-07T22:06:21.616Z,1.65
2022-09-07T22:09:08.556Z,1.73
2022-09-07T22:11:55.327Z,1.35
2022-09-07T22:14:43.400Z,1.38
2022-09-07T22:17:32.204Z,1.45
2022-09-07T22:20:19.536Z,1.70
2022-09-07T22:23:06.368Z,1.20
2022-09-07T22:25:53.307Z,1.33
2022-09-07T22:28:40.442Z,1.55
2022-09-07T22:31:30.284Z,1.25
2022-09-07T22:34:17.320Z,1.10
2022-09-07T22:37:04.125Z,2.08
2022-09-07T22:39:51.293Z,1.48
2022-09-07T22:42:39.021Z,1.45
2022-09-07T22:45:25.772Z,1.85
2022-09-07T22:48:17.233Z,1.27
2022-09-07T22:51:05.227Z,1.33
2022-09-07T22:53:52.854Z,1.20
2022-09-07T22:56:39.719Z,1.70
2022-09-07T22:59:30.881Z,1.38
2022-09-07T23:02:19.817Z,3.17
2022-09-07T23:05:07.123Z,1.20
2022-09-07T23:07:53.922Z,1.33
2022-09-07T23:10:40.695Z,1.40
2022-09-07T23:13:32.115Z,1.10
2022-09-07T23:16:21.805Z,1.50
2022-09-07T23:19:13.558Z,1.27
2022-09-07T23:22:00.656Z,1.15
2022-09-07T23:24:49.877Z,1.70
2022-09-07T23:27:39.063Z,1.50
2022-09-07T23:30:27.934Z,1.80
2022-09-07T23:33:15.384Z,1.35
2022-09-07T23:36:04.546Z,1.15
2022-09-07T23:38:54.346Z,1.60
2022-09-07T23:41:41.465Z,1.52
2022-09-07T23:44:28.299Z,1.20
2022-09-07T23:47:15.288Z,1.60
2022-09-07T23:50:02.101Z,1.42
2022-09-07T23:52:49.020Z,1.23
2022-09-07T23:55:38.850Z,1.45
2022-09-07T23:58:28.285Z,1.15
